»·PEaware :: SWA42 KPSP-KLGB

SWA42 :: KPSP-KLGB

FLIGHT INFORMATION

Flight Status: Arrived
Operator:
Southwest Airlines
More flights by this operator :: More flights under this callsign
Pilot: Anonymous 17878 (17878)
Aircraft: BOEING 737-800
(B738)
More flights by this aircraft type
Origin: KPSP Palm Springs Intl
United States
Destination: KLGB Long Beach
United States
More flights between these airports :: More routes between these airports
Route: CATH1 PSP V388 DEWAY HDF KAYOH7
File this flight plan on PilotEdge
Remarks: RMK / SIMBRIEF
Altitude:
(Current/Filed)
12,000ft
Speed:
(Current/Filed)
361kts
Departed: 07-Jan-21 09:54 PM
Arrived: 07-Jan-21 10:22 PM
Distance/Time
Traveled:
82nm/0:28
Distance/Time
To Go:
Arrived

Flight Plot

Page will automatically refresh every two minutes.

Flight plan parsing failed; only flown route is shown


Map Options




Map Legend


Flown Route
Filed Route
Departure Airport
Arrival Airport
Navaid (VOR, NDB)
Fix

Horizontal Profiles

Position Reports

Time Latitude Longitude Heading Altitude Ground
Speed
07-Jan-21 21:13 33.823466 -116.505896 253 487ft 0kts
07-Jan-21 21:14 33.823466 -116.505896 253 487ft 0kts
07-Jan-21 21:15 33.823466 -116.505896 253 487ft 0kts
07-Jan-21 21:16 33.823466 -116.505896 253 487ft 0kts
07-Jan-21 21:17 33.823466 -116.505896 253 487ft 0kts
07-Jan-21 21:18 33.823466 -116.505896 253 487ft 0kts
07-Jan-21 21:19 33.823466 -116.505896 253 487ft 0kts
07-Jan-21 21:20 33.823466 -116.505896 253 487ft 0kts
07-Jan-21 21:21 33.823466 -116.505896 253 487ft 0kts
07-Jan-21 21:22 33.823466 -116.505896 253 487ft 0kts
07-Jan-21 21:23 33.823466 -116.505896 253 487ft 0kts
07-Jan-21 21:24 33.823466 -116.505896 253 487ft 0kts
07-Jan-21 21:25 33.823466 -116.505896 253 487ft 0kts
07-Jan-21 21:26 33.823466 -116.505896 253 487ft 0kts
07-Jan-21 21:27 33.823466 -116.505896 253 487ft 0kts
07-Jan-21 21:28 33.823466 -116.505896 253 486ft 0kts
07-Jan-21 21:29 33.823466 -116.505896 253 486ft 0kts
07-Jan-21 21:30 33.823466 -116.505896 253 486ft 0kts
07-Jan-21 21:31 33.823466 -116.505896 253 486ft 0kts
07-Jan-21 21:32 33.823466 -116.505896 253 486ft 0kts
07-Jan-21 21:33 33.823466 -116.505896 253 486ft 0kts
07-Jan-21 21:34 33.823466 -116.505896 253 486ft 0kts
07-Jan-21 21:35 33.823466 -116.505896 253 486ft 0kts
07-Jan-21 21:36 33.823466 -116.505896 253 486ft 0kts
07-Jan-21 21:37 33.823466 -116.505896 253 486ft 0kts
07-Jan-21 21:38 33.823466 -116.505896 253 486ft 0kts
07-Jan-21 21:40 33.823466 -116.505896 253 486ft 0kts
07-Jan-21 21:41 33.823466 -116.505896 253 486ft 0kts
07-Jan-21 21:42 33.823760 -116.505535 192 486ft 2kts
07-Jan-21 21:43 33.824143 -116.505650 142 486ft 0kts
07-Jan-21 21:44 33.824143 -116.505650 142 486ft 0kts
07-Jan-21 21:45 33.824143 -116.505650 142 486ft 0kts
07-Jan-21 21:46 33.824143 -116.505650 142 486ft 0kts
07-Jan-21 21:47 33.824109 -116.505620 143 486ft 2kts
07-Jan-21 21:48 33.823062 -116.503962 118 486ft 3kts
07-Jan-21 21:49 33.821228 -116.502191 142 486ft 15kts
07-Jan-21 21:50 33.818503 -116.499119 83 486ft 0kts
07-Jan-21 21:51 33.818503 -116.499119 83 486ft 0kts
07-Jan-21 21:52 33.818503 -116.499119 83 486ft 0kts
07-Jan-21 21:53 33.818589 -116.498337 59 486ft 7kts
07-Jan-21 21:54 33.824042 -116.502633 323 487ft 129kts
07-Jan-21 21:55 33.859503 -116.536619 323 3714ft 174kts
07-Jan-21 21:56 33.900669 -116.571397 324 6872ft 188kts
07-Jan-21 21:57 33.923742 -116.625318 277 9862ft 193kts
07-Jan-21 21:57 33.934571 -116.677650 284 12003ft 202kts
07-Jan-21 21:58 33.946582 -116.741666 265 11999ft 195kts
07-Jan-21 22:00 33.920996 -116.811719 247 12000ft 197kts
07-Jan-21 22:01 33.897966 -116.871674 246 12000ft 198kts
07-Jan-21 22:01 33.878658 -116.921680 246 12000ft 197kts
07-Jan-21 22:02 33.855321 -116.982036 246 12005ft 198kts
07-Jan-21 22:03 33.825966 -117.058031 246 12004ft 307kts
07-Jan-21 22:04 33.786540 -117.161087 250 11993ft 336kts
07-Jan-21 22:05 33.777225 -117.271152 271 11990ft 334kts
07-Jan-21 22:06 33.778511 -117.382717 271 11981ft 325kts
07-Jan-21 22:07 33.779461 -117.480066 271 11998ft 269kts
07-Jan-21 22:08 33.780148 -117.565929 271 11967ft 235kts
07-Jan-21 22:10 33.780948 -117.664695 270 8936ft 269kts
07-Jan-21 22:10 33.749648 -117.723526 203 6688ft 276kts
07-Jan-21 22:11 33.678810 -117.758383 201 4281ft 269kts
07-Jan-21 22:12 33.612170 -117.790864 201 3019ft 232kts
07-Jan-21 22:13 33.597238 -117.854260 281 3015ft 222kts
07-Jan-21 22:14 33.624773 -117.918571 313 2940ft 223kts
07-Jan-21 22:15 33.666633 -117.969207 315 2158ft 191kts
07-Jan-21 22:16 33.700718 -118.010187 315 2016ft 165kts
07-Jan-21 22:17 33.730544 -118.046099 315 1986ft 136kts
07-Jan-21 22:18 33.757301 -118.078346 315 1582ft 136kts
07-Jan-21 22:19 33.783743 -118.110240 315 853ft 133kts
07-Jan-21 22:20 33.809734 -118.141614 314 174ft 129kts
07-Jan-21 22:21 33.821288 -118.155651 311 69ft 20kts
07-Jan-21 22:22 33.821399 -118.157278 192 69ft 0kts
07-Jan-21 22:23 33.821399 -118.157278 192 69ft 0kts
07-Jan-21 22:24 33.820129 -118.156065 134 69ft 11kts
07-Jan-21 22:25 33.818556 -118.152343 88 69ft 13kts
07-Jan-21 22:26 33.818560 -118.147633 88 69ft 13kts
07-Jan-21 22:27 33.818610 -118.146120 91 69ft 0kts

Navigation Log

Ident Type
Flight plan parsing failed, navigation log unavailable